createdAt,value
2023-04-16T00:00:03.911Z,8.59
2023-04-16T00:02:32.108Z,8.60
2023-04-16T00:04:59.877Z,8.56
2023-04-16T00:07:27.572Z,8.59
2023-04-16T00:09:55.666Z,8.60
2023-04-16T00:12:23.778Z,8.61
2023-04-16T00:14:51.471Z,8.62
2023-04-16T00:17:19.134Z,8.62
2023-04-16T00:19:46.785Z,8.60
2023-04-16T00:22:14.466Z,8.57
2023-04-16T00:24:42.273Z,8.55
2023-04-16T00:27:09.972Z,8.55
2023-04-16T00:29:37.606Z,8.55
2023-04-16T00:32:05.940Z,8.54
2023-04-16T00:34:33.589Z,8.54
2023-04-16T00:37:01.482Z,8.55
2023-04-16T00:39:29.146Z,8.56
2023-04-16T00:41:56.851Z,8.55
2023-04-16T00:44:24.530Z,8.55
2023-04-16T00:46:52.297Z,8.55
2023-04-16T00:49:20.017Z,8.53
2023-04-16T00:51:48.152Z,8.51
2023-04-16T00:54:15.983Z,8.49
2023-04-16T00:56:44.598Z,8.50
2023-04-16T00:59:12.524Z,8.50
2023-04-16T01:01:40.609Z,8.51
2023-04-16T01:04:08.651Z,8.52
2023-04-16T01:06:36.479Z,8.52
2023-04-16T01:09:04.210Z,8.52
2023-04-16T01:11:32.091Z,8.51
2023-04-16T01:13:59.705Z,8.51
2023-04-16T01:16:27.461Z,8.51
2023-04-16T01:18:55.144Z,8.50
2023-04-16T01:21:22.779Z,8.51
2023-04-16T01:23:50.563Z,8.51
2023-04-16T01:26:18.208Z,8.51
2023-04-16T01:28:45.916Z,8.50
2023-04-16T01:31:13.595Z,8.49
2023-04-16T01:33:41.328Z,8.49
2023-04-16T01:36:09.000Z,8.49
2023-04-16T01:38:36.677Z,8.47
2023-04-16T01:41:04.304Z,8.47
2023-04-16T01:43:31.984Z,8.47
2023-04-16T01:46:15.248Z,8.45
2023-04-16T01:48:43.133Z,8.44
2023-04-16T01:51:10.977Z,8.42
2023-04-16T01:53:38.726Z,8.40
2023-04-16T01:56:06.863Z,8.39
2023-04-16T01:58:35.759Z,8.38
2023-04-16T02:01:04.528Z,8.38
2023-04-16T02:03:32.659Z,8.35
2023-04-16T02:06:01.529Z,8.35
2023-04-16T02:08:29.201Z,8.34
2023-04-16T02:10:57.576Z,8.34
2023-04-16T02:13:26.140Z,8.34
2023-04-16T02:15:53.940Z,8.32
2023-04-16T02:18:21.584Z,8.31
2023-04-16T02:20:51.888Z,8.32
2023-04-16T02:23:19.534Z,8.31
2023-04-16T02:25:47.702Z,8.32
2023-04-16T02:28:17.128Z,8.32
2023-04-16T02:30:45.298Z,8.31
2023-04-16T02:33:13.295Z,8.30
2023-04-16T02:35:41.350Z,8.28
2023-04-16T02:38:09.284Z,8.27
2023-04-16T02:40:37.062Z,8.26
2023-04-16T02:43:04.722Z,8.25
2023-04-16T02:45:32.445Z,8.24
2023-04-16T02:48:00.957Z,8.24
2023-04-16T02:50:28.767Z,8.23
2023-04-16T02:52:56.493Z,8.23
2023-04-16T02:55:24.269Z,8.22
2023-04-16T02:57:53.082Z,8.22
2023-04-16T03:00:20.840Z,8.21
2023-04-16T03:02:48.656Z,8.20
2023-04-16T03:05:16.621Z,8.20
2023-04-16T03:07:44.326Z,8.18
2023-04-16T03:10:12.485Z,8.16
2023-04-16T03:12:40.131Z,8.15
2023-04-16T03:15:08.511Z,8.15
2023-04-16T03:17:36.447Z,8.16
2023-04-16T03:20:05.778Z,8.14
2023-04-16T03:22:33.468Z,8.14
2023-04-16T03:25:01.425Z,8.14
2023-04-16T03:27:29.092Z,8.14
2023-04-16T03:29:57.245Z,8.14
2023-04-16T03:32:24.949Z,8.14
2023-04-16T03:34:52.783Z,8.13
2023-04-16T03:37:20.547Z,8.11
2023-04-16T03:39:48.208Z,8.11
2023-04-16T03:42:16.157Z,8.11
2023-04-16T03:44:43.955Z,8.12
2023-04-16T03:47:11.716Z,8.12
2023-04-16T03:49:39.359Z,8.11
2023-04-16T03:52:07.420Z,8.10
2023-04-16T03:54:35.103Z,8.11
2023-04-16T03:57:03.068Z,8.13
2023-04-16T03:59:30.833Z,8.13
2023-04-16T04:01:58.495Z,8.13
2023-04-16T04:04:26.426Z,8.12
2023-04-16T04:06:54.365Z,8.11
2023-04-16T04:09:22.093Z,8.12
2023-04-16T04:11:50.635Z,8.13
2023-04-16T04:14:18.333Z,8.14
2023-04-16T04:16:46.430Z,8.14
2023-04-16T04:19:14.270Z,8.14
2023-04-16T04:21:41.902Z,8.15
2023-04-16T04:24:09.668Z,8.14
2023-04-16T04:26:37.536Z,8.15
2023-04-16T04:29:05.838Z,8.17
2023-04-16T04:31:33.662Z,8.20
2023-04-16T04:34:01.392Z,8.24
2023-04-16T04:36:29.122Z,8.25
2023-04-16T04:38:56.814Z,8.27
2023-04-16T04:41:24.759Z,8.30
2023-04-16T04:43:52.648Z,8.32
2023-04-16T04:46:20.563Z,8.33
2023-04-16T04:48:48.446Z,8.35
2023-04-16T04:51:16.081Z,8.36
2023-04-16T04:53:43.770Z,8.38
2023-04-16T04:56:13.031Z,8.40
2023-04-16T04:58:41.985Z,8.42
2023-04-16T05:01:09.805Z,8.44
2023-04-16T05:03:37.803Z,8.45
2023-04-16T05:06:07.090Z,8.48
2023-04-16T05:08:34.718Z,8.49
2023-04-16T05:11:02.513Z,8.52
2023-04-16T05:13:30.157Z,8.56
2023-04-16T05:15:57.943Z,8.58
2023-04-16T05:18:25.602Z,8.60
2023-04-16T05:20:53.362Z,8.63
2023-04-16T05:23:21.028Z,8.67
2023-04-16T05:25:48.688Z,8.72
2023-04-16T05:28:16.346Z,8.75
2023-04-16T05:30:44.095Z,8.81
2023-04-16T05:33:11.751Z,8.86
2023-04-16T05:35:39.465Z,8.90
2023-04-16T05:38:07.178Z,8.96
2023-04-16T05:40:34.860Z,8.99
2023-04-16T05:43:02.618Z,9.01
2023-04-16T05:45:31.502Z,9.04
2023-04-16T05:47:59.228Z,9.05
2023-04-16T05:50:27.030Z,9.07
2023-04-16T05:52:54.790Z,9.10
2023-04-16T05:55:22.876Z,9.13
2023-04-16T05:57:50.636Z,9.17
2023-04-16T06:00:18.581Z,9.21
2023-04-16T06:02:46.465Z,9.25
2023-04-16T06:05:14.662Z,9.28
2023-04-16T06:07:42.739Z,9.32
2023-04-16T06:10:10.996Z,9.35
2023-04-16T06:12:38.651Z,9.35
2023-04-16T06:15:07.402Z,9.35
2023-04-16T06:17:35.170Z,9.34
2023-04-16T06:20:03.080Z,9.34
2023-04-16T06:22:31.033Z,9.35
2023-04-16T06:24:58.837Z,9.36
2023-04-16T06:27:27.277Z,9.39
2023-04-16T06:29:54.920Z,9.44
2023-04-16T06:32:22.810Z,9.46
2023-04-16T06:34:50.969Z,9.46
2023-04-16T06:37:18.593Z,9.49
2023-04-16T06:39:46.215Z,9.52
2023-04-16T06:42:14.077Z,9.53
2023-04-16T06:44:41.759Z,9.54
2023-04-16T06:47:09.628Z,9.55
2023-04-16T06:49:37.542Z,9.58
2023-04-16T06:52:06.155Z,9.61
2023-04-16T06:54:34.197Z,9.62
2023-04-16T06:57:02.166Z,9.64
2023-04-16T06:59:29.899Z,9.63
2023-04-16T07:01:57.816Z,9.64
2023-04-16T07:04:26.243Z,9.65
2023-04-16T07:06:54.075Z,9.69
2023-04-16T07:09:21.810Z,9.74
2023-04-16T07:11:49.451Z,9.81
2023-04-16T07:14:17.440Z,9.85
2023-04-16T07:16:45.129Z,9.90
2023-04-16T07:19:12.966Z,9.90
2023-04-16T07:21:43.645Z,9.89
2023-04-16T07:24:11.856Z,9.92
2023-04-16T07:26:39.636Z,9.96
2023-04-16T07:29:07.640Z,10.00
2023-04-16T07:31:35.712Z,10.04
2023-04-16T07:34:03.669Z,10.09
2023-04-16T07:36:32.016Z,10.11
2023-04-16T07:38:59.795Z,10.15
2023-04-16T07:41:29.575Z,10.20
2023-04-16T07:43:57.770Z,10.23
2023-04-16T07:46:30.539Z,10.30
2023-04-16T07:49:03.825Z,10.38
2023-04-16T07:51:31.615Z,10.47
2023-04-16T07:53:59.283Z,10.53
2023-04-16T07:56:27.644Z,10.55
2023-04-16T07:58:55.528Z,10.56
2023-04-16T08:01:23.269Z,10.57
2023-04-16T08:03:51.317Z,10.57
2023-04-16T08:06:19.200Z,10.58
2023-04-16T08:08:46.883Z,10.59
2023-04-16T08:11:15.368Z,10.62
2023-04-16T08:13:43.210Z,10.64
2023-04-16T08:16:11.270Z,10.69
2023-04-16T08:18:38.955Z,10.74
2023-04-16T08:21:06.675Z,10.73
2023-04-16T08:23:34.569Z,10.75
2023-04-16T08:26:02.338Z,10.80
2023-04-16T08:28:30.085Z,10.85
2023-04-16T08:30:57.894Z,10.90
2023-04-16T08:33:25.759Z,10.89
2023-04-16T08:35:53.407Z,10.89
2023-04-16T08:38:21.158Z,10.93
2023-04-16T08:40:49.018Z,10.97
2023-04-16T08:43:18.233Z,10.99
2023-04-16T08:45:47.693Z,11.06
2023-04-16T08:48:15.710Z,11.14
2023-04-16T08:50:44.229Z,11.23
2023-04-16T08:53:18.681Z,11.24
2023-04-16T08:55:50.759Z,11.32
2023-04-16T08:58:23.065Z,11.36
2023-04-16T09:00:52.161Z,11.41
2023-04-16T09:03:21.618Z,11.48
2023-04-16T09:05:50.560Z,11.55
2023-04-16T09:08:18.604Z,11.61
2023-04-16T09:10:46.964Z,11.72
2023-04-16T09:13:17.011Z,11.82
2023-04-16T09:15:44.917Z,11.89
2023-04-16T09:18:12.851Z,11.94
2023-04-16T09:20:40.624Z,12.02
2023-04-16T09:23:09.460Z,12.06
2023-04-16T09:25:38.632Z,12.13
2023-04-16T09:28:06.418Z,12.16
2023-04-16T09:30:34.956Z,12.17
2023-04-16T09:33:23.189Z,12.21
2023-04-16T09:35:53.180Z,12.27
2023-04-16T09:38:21.210Z,12.30
2023-04-16T09:41:08.912Z,12.28
2023-04-16T09:43:37.030Z,12.33
2023-04-16T09:46:08.214Z,12.42
2023-04-16T09:48:36.668Z,12.53
2023-04-16T09:51:06.558Z,12.59
2023-04-16T09:53:34.346Z,12.67
2023-04-16T09:56:04.948Z,12.77
2023-04-16T09:58:36.524Z,12.88
2023-04-16T10:01:04.208Z,12.91
2023-04-16T10:03:36.778Z,12.88
2023-04-16T10:06:09.564Z,12.90
2023-04-16T10:08:37.327Z,12.92
2023-04-16T10:11:05.533Z,12.90
2023-04-16T10:13:33.285Z,12.90
2023-04-16T10:16:01.716Z,12.96
2023-04-16T10:18:29.556Z,13.05
2023-04-16T10:20:57.663Z,13.07
2023-04-16T10:23:26.429Z,13.08
2023-04-16T10:25:57.528Z,13.10
2023-04-16T10:28:29.536Z,13.10
2023-04-16T10:30:58.789Z,13.07
2023-04-16T10:33:33.490Z,13.06
2023-04-16T10:36:27.709Z,13.07
2023-04-16T10:38:58.449Z,13.14
2023-04-16T10:41:26.989Z,13.09
2023-04-16T10:44:07.075Z,13.09
2023-04-16T10:46:44.877Z,13.16
2023-04-16T10:49:20.431Z,13.18
2023-04-16T10:52:13.049Z,13.28
2023-04-16T10:54:41.407Z,13.35
2023-04-16T10:57:14.979Z,13.39
2023-04-16T10:59:43.872Z,13.48
2023-04-16T11:02:19.213Z,13.58
2023-04-16T11:04:49.209Z,13.59
2023-04-16T11:07:31.755Z,13.65
2023-04-16T11:10:04.157Z,13.70
2023-04-16T11:12:40.492Z,13.69
2023-04-16T11:15:13.453Z,13.62
2023-04-16T11:17:48.527Z,13.61
2023-04-16T11:20:19.771Z,13.58
2023-04-16T11:22:53.835Z,13.57
2023-04-16T11:25:22.966Z,13.53
2023-04-16T11:27:52.096Z,13.47
2023-04-16T11:30:33.433Z,13.42
2023-04-16T11:33:12.324Z,13.37
2023-04-16T11:35:43.347Z,13.27
2023-04-16T11:38:11.035Z,13.22
2023-04-16T11:40:38.641Z,13.19
2023-04-16T11:43:16.825Z,13.26
2023-04-16T11:46:10.026Z,13.28
2023-04-16T11:48:50.372Z,13.24
2023-04-16T11:51:19.335Z,13.18
2023-04-16T11:53:53.171Z,13.11
2023-04-16T11:56:32.976Z,13.03
2023-04-16T11:59:24.201Z,12.97
2023-04-16T12:01:58.032Z,12.96
2023-04-16T12:04:27.743Z,12.94
2023-04-16T12:07:10.123Z,12.89
2023-04-16T12:09:40.784Z,12.85
2023-04-16T12:12:31.660Z,12.84
2023-04-16T12:15:03.609Z,12.84
2023-04-16T12:17:35.391Z,12.87
2023-04-16T12:20:08.441Z,12.92
2023-04-16T12:22:38.078Z,12.96
2023-04-16T12:25:10.660Z,12.99
2023-04-16T12:28:08.201Z,13.01
2023-04-16T12:30:51.502Z,13.04
2023-04-16T12:33:19.602Z,13.16
2023-04-16T12:35:47.457Z,13.29
2023-04-16T12:38:15.539Z,13.40
2023-04-16T12:40:43.717Z,13.50
2023-04-16T12:43:11.992Z,13.60
2023-04-16T12:45:40.590Z,13.78
2023-04-16T12:48:08.442Z,13.83
2023-04-16T12:50:36.209Z,13.72
2023-04-16T12:53:04.063Z,13.67
2023-04-16T12:55:31.836Z,13.67
2023-04-16T12:57:59.539Z,13.61
2023-04-16T13:00:27.357Z,13.52
2023-04-16T13:02:55.177Z,13.45
2023-04-16T13:05:22.984Z,13.44
2023-04-16T13:07:50.698Z,13.48
2023-04-16T13:10:21.571Z,13.40
2023-04-16T13:12:49.358Z,13.43
2023-04-16T13:15:17.207Z,13.57
2023-04-16T13:17:45.057Z,13.72
2023-04-16T13:20:12.955Z,13.76
2023-04-16T13:22:40.861Z,13.82
2023-04-16T13:25:09.359Z,13.91
2023-04-16T13:27:37.170Z,13.86
2023-04-16T13:30:05.877Z,13.96
2023-04-16T13:32:33.861Z,14.18
2023-04-16T13:35:01.778Z,14.39
2023-04-16T13:37:29.474Z,14.32
2023-04-16T13:39:57.195Z,14.38
2023-04-16T13:42:24.856Z,14.49
2023-04-16T13:44:55.046Z,14.52
2023-04-16T13:47:22.957Z,14.48
2023-04-16T13:49:50.828Z,14.43
2023-04-16T13:52:18.572Z,14.41
2023-04-16T13:54:46.258Z,14.38
2023-04-16T13:57:14.240Z,14.31
2023-04-16T13:59:42.076Z,14.22
2023-04-16T14:02:14.308Z,14.13
2023-04-16T14:04:42.068Z,14.04
2023-04-16T14:07:09.734Z,14.01
2023-04-16T14:09:37.672Z,13.94
2023-04-16T14:12:05.970Z,13.95
2023-04-16T14:14:33.895Z,13.98
2023-04-16T14:17:03.425Z,13.99
2023-04-16T14:19:31.349Z,13.98
2023-04-16T14:21:59.115Z,14.05
2023-04-16T14:24:26.876Z,14.06
2023-04-16T14:26:54.526Z,14.02
2023-04-16T14:29:22.281Z,13.93
2023-04-16T14:31:50.512Z,13.93
2023-04-16T14:34:18.248Z,13.99
2023-04-16T14:36:46.027Z,14.01
2023-04-16T14:39:13.760Z,14.03
2023-04-16T14:41:41.631Z,13.97
2023-04-16T14:44:09.234Z,14.01
2023-04-16T14:46:38.619Z,14.09
2023-04-16T14:49:06.533Z,14.13
2023-04-16T14:51:34.284Z,14.17
2023-04-16T14:54:02.183Z,14.09
2023-04-16T14:56:30.205Z,14.08
2023-04-16T14:58:57.916Z,14.18
2023-04-16T15:01:26.281Z,14.28
2023-04-16T15:03:56.611Z,14.35
2023-04-16T15:06:24.476Z,14.40
2023-04-16T15:08:52.236Z,14.39
2023-04-16T15:11:20.024Z,14.33
2023-04-16T15:13:47.708Z,14.25
2023-04-16T15:16:15.451Z,14.17
2023-04-16T15:18:43.410Z,14.06
2023-04-16T15:21:12.556Z,13.93
2023-04-16T15:23:40.668Z,13.90
2023-04-16T15:26:08.408Z,13.90
2023-04-16T15:28:36.061Z,13.92
2023-04-16T15:31:03.771Z,13.91
2023-04-16T15:33:31.514Z,13.85
2023-04-16T15:35:59.198Z,13.78
2023-04-16T15:38:28.782Z,13.73
2023-04-16T15:40:59.823Z,13.70
2023-04-16T15:43:29.120Z,13.63
2023-04-16T15:45:57.400Z,13.53
2023-04-16T15:48:25.110Z,13.58
2023-04-16T15:50:54.264Z,13.62
2023-04-16T15:53:22.307Z,13.62
2023-04-16T15:55:52.685Z,13.58
2023-04-16T15:58:23.594Z,13.56
2023-04-16T16:00:51.541Z,13.59
2023-04-16T16:03:20.123Z,13.63
2023-04-16T16:05:48.620Z,13.61
2023-04-16T16:08:16.818Z,13.59
2023-04-16T16:10:44.700Z,13.58
2023-04-16T16:13:14.111Z,13.58
2023-04-16T16:15:42.624Z,13.56
2023-04-16T16:18:10.831Z,13.59
2023-04-16T16:20:40.662Z,13.68
2023-04-16T16:23:08.420Z,13.75
2023-04-16T16:25:36.355Z,13.74
2023-04-16T16:28:06.651Z,13.70
2023-04-16T16:30:34.527Z,13.69
2023-04-16T16:33:02.301Z,13.67
2023-04-16T16:35:30.081Z,13.61
2023-04-16T16:37:59.481Z,13.74
2023-04-16T16:40:27.929Z,14.00
2023-04-16T16:42:56.185Z,14.25
2023-04-16T16:45:26.321Z,14.34
2023-04-16T16:47:55.008Z,14.25
2023-04-16T16:50:22.910Z,14.04
2023-04-16T16:52:50.858Z,13.79
2023-04-16T16:55:19.116Z,13.65
2023-04-16T16:57:47.115Z,13.53
2023-04-16T17:00:16.347Z,13.40
2023-04-16T17:02:44.556Z,13.26
2023-04-16T17:05:13.085Z,13.06
2023-04-16T17:07:40.824Z,12.85
2023-04-16T17:10:15.863Z,12.68
2023-04-16T17:12:43.548Z,12.50
2023-04-16T17:15:11.887Z,12.33
2023-04-16T17:17:39.778Z,12.19
2023-04-16T17:20:10.006Z,12.04
2023-04-16T17:22:39.126Z,11.92
2023-04-16T17:25:08.222Z,11.77
2023-04-16T17:27:36.309Z,11.63
2023-04-16T17:30:05.840Z,11.50
2023-04-16T17:32:33.773Z,11.37
2023-04-16T17:35:04.515Z,11.28
2023-04-16T17:37:32.692Z,11.18
2023-04-16T17:40:00.540Z,11.12
2023-04-16T17:42:28.246Z,11.05
2023-04-16T17:44:56.031Z,10.94
2023-04-16T17:47:23.783Z,10.86
2023-04-16T17:49:55.555Z,10.79
2023-04-16T17:52:23.387Z,10.69
2023-04-16T17:54:51.286Z,10.61
2023-04-16T17:57:19.035Z,10.53
2023-04-16T17:59:46.800Z,10.47
2023-04-16T18:02:14.902Z,10.39
2023-04-16T18:04:43.045Z,10.32
2023-04-16T18:07:11.568Z,10.25
2023-04-16T18:09:39.377Z,10.18
2023-04-16T18:12:07.542Z,10.13
2023-04-16T18:14:35.999Z,10.06
2023-04-16T18:17:06.243Z,10.01
2023-04-16T18:19:35.610Z,9.98
2023-04-16T18:22:03.882Z,9.94
2023-04-16T18:24:33.498Z,9.90
2023-04-16T18:27:01.734Z,9.87
2023-04-16T18:29:29.571Z,9.82
2023-04-16T18:31:57.435Z,9.80
2023-04-16T18:34:26.026Z,9.77
2023-04-16T18:36:54.162Z,9.72
2023-04-16T18:39:21.997Z,9.70
2023-04-16T18:41:49.919Z,9.68
2023-04-16T18:44:19.920Z,9.63
2023-04-16T18:46:48.650Z,9.58
2023-04-16T18:49:16.529Z,9.52
2023-04-16T18:51:44.294Z,9.49
2023-04-16T18:54:12.103Z,9.46
2023-04-16T18:56:39.889Z,9.41
2023-04-16T18:59:07.710Z,9.34
2023-04-16T19:01:35.740Z,9.29
2023-04-16T19:04:03.845Z,9.25
2023-04-16T19:06:32.542Z,9.20
2023-04-16T19:09:00.257Z,9.15
2023-04-16T19:11:28.039Z,9.08
2023-04-16T19:13:57.497Z,9.03
2023-04-16T19:16:25.307Z,8.99
2023-04-16T19:18:53.100Z,8.95
2023-04-16T19:21:20.792Z,8.91
2023-04-16T19:23:49.117Z,8.86
2023-04-16T19:26:16.870Z,8.81
2023-04-16T19:28:45.827Z,8.79
2023-04-16T19:31:13.571Z,8.75
2023-04-16T19:33:41.685Z,8.72
2023-04-16T19:36:09.444Z,8.68
2023-04-16T19:38:37.261Z,8.64
2023-04-16T19:41:05.099Z,8.60
2023-04-16T19:43:33.355Z,8.55
2023-04-16T19:46:01.375Z,8.52
2023-04-16T19:48:30.581Z,8.50
2023-04-16T19:51:03.296Z,8.48
2023-04-16T19:53:31.072Z,8.44
2023-04-16T19:55:58.967Z,8.42
2023-04-16T19:58:27.210Z,8.36
2023-04-16T20:00:55.837Z,8.31
2023-04-16T20:03:23.700Z,8.27
2023-04-16T20:05:51.372Z,8.22
2023-04-16T20:08:19.403Z,8.18
2023-04-16T20:10:47.060Z,8.14
2023-04-16T20:13:16.716Z,8.09
2023-04-16T20:15:47.288Z,8.06
2023-04-16T20:18:15.451Z,8.03
2023-04-16T20:20:43.188Z,8.00
2023-04-16T20:23:11.288Z,7.99
2023-04-16T20:25:43.065Z,7.97
2023-04-16T20:28:10.821Z,7.94
2023-04-16T20:30:41.472Z,7.91
2023-04-16T20:33:09.619Z,7.90
2023-04-16T20:35:37.656Z,7.89
2023-04-16T20:38:05.389Z,7.88
2023-04-16T20:40:33.396Z,7.86
2023-04-16T20:43:01.178Z,7.83
2023-04-16T20:45:32.233Z,7.80
2023-04-16T20:48:00.141Z,7.77
2023-04-16T20:50:27.987Z,7.74
2023-04-16T20:52:56.398Z,7.72
2023-04-16T20:55:24.570Z,7.70
2023-04-16T20:57:52.446Z,7.68
2023-04-16T21:00:20.591Z,7.65
2023-04-16T21:02:48.437Z,7.64
2023-04-16T21:05:16.354Z,7.62
2023-04-16T21:07:44.074Z,7.61
2023-04-16T21:10:11.991Z,7.58
2023-04-16T21:12:39.834Z,7.56
2023-04-16T21:15:07.901Z,7.54
2023-04-16T21:17:35.930Z,7.53
2023-04-16T21:20:06.982Z,7.52
2023-04-16T21:22:34.811Z,7.49
2023-04-16T21:25:02.765Z,7.44
2023-04-16T21:27:30.523Z,7.42
2023-04-16T21:29:58.306Z,7.42
2023-04-16T21:32:26.091Z,7.40
2023-04-16T21:34:53.926Z,7.37
2023-04-16T21:37:21.579Z,7.34
2023-04-16T21:39:49.383Z,7.33
2023-04-16T21:42:17.107Z,7.31
2023-04-16T21:44:44.712Z,7.30
2023-04-16T21:47:12.908Z,7.27
2023-04-16T21:49:42.312Z,7.25
2023-04-16T21:52:18.397Z,7.25
2023-04-16T21:54:47.016Z,7.26
2023-04-16T21:57:14.856Z,7.26
2023-04-16T21:59:42.490Z,7.26
2023-04-16T22:02:10.229Z,7.27
2023-04-16T22:04:39.020Z,7.29
2023-04-16T22:07:09.007Z,7.29
2023-04-16T22:09:36.851Z,7.31
2023-04-16T22:12:12.199Z,7.32
2023-04-16T22:14:46.232Z,7.31
2023-04-16T22:17:17.188Z,7.31
2023-04-16T22:19:45.584Z,7.32
2023-04-16T22:22:13.564Z,7.31
2023-04-16T22:24:42.738Z,7.31
2023-04-16T22:27:10.744Z,7.31
2023-04-16T22:29:38.386Z,7.30
2023-04-16T22:32:06.082Z,7.28
2023-04-16T22:34:33.898Z,7.24
2023-04-16T22:37:03.145Z,7.20
2023-04-16T22:39:31.701Z,7.18
2023-04-16T22:41:59.679Z,7.17
2023-04-16T22:44:27.336Z,7.14
2023-04-16T22:46:55.036Z,7.09
2023-04-16T22:49:22.694Z,7.06
2023-04-16T22:51:50.353Z,7.05
2023-04-16T22:54:17.978Z,7.06
2023-04-16T22:56:48.734Z,7.08
2023-04-16T22:59:16.530Z,7.10
2023-04-16T23:01:44.279Z,7.14
2023-04-16T23:04:12.182Z,7.16
2023-04-16T23:06:41.000Z,7.18
2023-04-16T23:09:09.484Z,7.19
2023-04-16T23:11:37.236Z,7.18
2023-04-16T23:14:05.223Z,7.18
2023-04-16T23:16:32.851Z,7.18
2023-04-16T23:19:00.468Z,7.19
2023-04-16T23:21:28.673Z,7.20
2023-04-16T23:23:57.156Z,7.23
2023-04-16T23:26:24.840Z,7.26
2023-04-16T23:28:52.461Z,7.25
2023-04-16T23:31:20.190Z,7.26
2023-04-16T23:33:47.918Z,7.25
2023-04-16T23:36:15.785Z,7.27
2023-04-16T23:38:43.453Z,7.29
2023-04-16T23:41:11.143Z,7.29
2023-04-16T23:43:40.697Z,7.29
2023-04-16T23:46:08.528Z,7.30
2023-04-16T23:48:36.327Z,7.31
2023-04-16T23:51:04.427Z,7.31
2023-04-16T23:53:32.055Z,7.31
2023-04-16T23:55:59.660Z,7.31
2023-04-16T23:58:27.390Z,7.27
